Time;durP1;ratioP1;P1;durP2;ratioP2;P2;SDS_P1;SDS_P2;PMS_P1;PMS_P2;Temp;Humidity;BMP_temperature;BMP_pressure;BME280_temperature;BME280_humidity;BME280_pressure;Samples;Min_cycle;Max_cycle;Signal;HPM_P1;HPM_P2
2023/01/03 00:01:33;;;;;;;2.40;0.45;;;;;;;2.37;53.87;102292.28;4960817;28;19944;-64
2023/01/03 00:03:59;;;;;;;11.90;0.40;;;;;;;2.50;53.39;102291.66;4957663;28;20143;-64
2023/01/03 00:06:31;;;;;;;0.85;0.20;;;;;;;2.61;52.83;102289.25;4960326;28;20106;-62
2023/01/03 00:08:58;;;;;;;;;;;;;;;2.45;53.17;102291.59;4993951;28;20046;-64
2023/01/03 00:14:17;;;;;;;2.33;0.30;;;;;;;2.14;53.29;102285.03;4960998;28;20039;-62
2023/01/03 00:16:43;;;;;;;4.15;0.30;;;;;;;2.74;51.90;102297.22;4959147;28;20585;-63
2023/01/03 00:19:11;;;;;;;4.35;0.43;;;;;;;2.40;53.22;102302.66;4961849;28;20141;-64
2023/01/03 00:21:37;;;;;;;2.40;0.28;;;;;;;3.01;51.39;102303.63;4965595;28;20514;-63
2023/01/03 00:24:03;;;;;;;3.45;0.20;;;;;;;2.69;52.04;102311.78;4961542;28;20062;-62
2023/01/03 00:26:29;;;;;;;9.68;0.40;;;;;;;3.11;51.08;102310.69;4960050;28;20043;-62
2023/01/03 00:28:54;;;;;;;0.95;0.35;;;;;;;3.11;50.84;102313.25;4957079;28;20498;-63
2023/01/03 00:31:20;;;;;;;4.30;0.43;;;;;;;2.88;51.68;102314.63;4973272;28;20026;-63
2023/01/03 00:33:46;;;;;;;2.50;0.50;;;;;;;3.16;50.86;102327.09;4984045;28;20154;-62
2023/01/03 00:36:11;;;;;;;1.17;0.20;;;;;;;2.97;51.33;102319.94;4984111;28;20106;-63
2023/01/03 00:38:37;;;;;;;0.90;0.10;;;;;;;2.96;51.03;102324.22;4981098;28;20042;-64
2023/01/03 00:41:09;;;;;;;2.75;0.45;;;;;;;2.90;51.09;102318.97;4979438;28;20048;-62
2023/01/03 00:43:35;;;;;;;3.95;0.30;;;;;;;2.83;50.96;102326.59;4972005;28;20058;-64
2023/01/03 00:46:01;;;;;;;10.15;0.60;;;;;;;2.70;51.35;102328.97;4958739;28;20066;-63
2023/01/03 00:48:27;;;;;;;7.93;0.20;;;;;;;2.75;50.52;102329.91;4972582;28;20220;-63
2023/01/03 00:50:53;;;;;;;5.28;0.20;;;;;;;2.37;51.29;102329.28;4958560;28;20072;-63
2023/01/03 00:53:19;;;;;;;3.85;0.80;;;;;;;2.63;50.60;102340.06;4970461;28;20050;-65
2023/01/03 00:55:45;;;;;;;2.75;0.30;;;;;;;2.54;50.87;102339.91;4956734;28;20153;-64
2023/01/03 00:58:11;;;;;;;2.15;0.30;;;;;;;2.33;51.46;102346.44;4958241;28;20254;-64
2023/01/03 01:00:36;;;;;;;2.03;0.10;;;;;;;2.35;51.50;102334.44;4963835;28;20057;-64
2023/01/03 01:03:01;;;;;;;2.75;0.50;;;;;;;2.25;51.72;102353.16;4970085;28;20435;-64
2023/01/03 01:05:29;;;;;;;2.33;0.38;;;;;;;2.24;51.54;102346.28;4975812;28;20034;-64
2023/01/03 01:07:54;;;;;;;9.73;0.40;;;;;;;2.16;51.61;102347.84;4978463;28;20137;-63
2023/01/03 01:10:20;;;;;;;2.90;0.17;;;;;;;2.01;52.37;102348.41;4980698;28;20053;-63
2023/01/03 01:12:46;;;;;;;3.30;0.10;;;;;;;1.77;52.70;102348.78;4977330;28;20042;-64
2023/01/03 01:15:12;;;;;;;2.83;0.10;;;;;;;2.03;52.03;102351.03;4993259;28;20403;-63
2023/01/03 01:17:39;;;;;;;6.13;0.20;;;;;;;2.13;51.48;102353.81;4978637;28;20041;-64
2023/01/03 01:20:05;;;;;;;1.13;0.30;;;;;;;1.87;52.01;102353.28;4982590;28;20041;-64
2023/01/03 01:22:31;;;;;;;1.65;0.10;;;;;;;1.58;52.91;102357.84;4980734;28;20038;-65
2023/01/03 01:24:57;;;;;;;3.53;0.20;;;;;;;1.88;52.02;102362.75;4980985;28;20240;-64
2023/01/03 01:27:22;;;;;;;4.95;0.45;;;;;;;1.89;51.95;102364.50;4978890;28;20322;-72
2023/01/03 01:29:48;;;;;;;1.55;0.17;;;;;;;1.98;51.38;102366.41;4970035;28;20033;-62
2023/01/03 01:32:13;;;;;;;4.10;0.73;;;;;;;1.89;51.89;102372.25;4985107;28;20439;-62
2023/01/03 01:34:39;;;;;;;2.20;0.20;;;;;;;1.77;52.17;102374.56;4982363;28;20025;-62
2023/01/03 01:37:04;;;;;;;5.68;0.20;;;;;;;1.94;51.83;102373.19;4985984;28;20040;-62
2023/01/03 01:39:30;;;;;;;1.75;0.20;;;;;;;1.81;52.07;102378.94;4981594;28;20144;-62
2023/01/03 01:44:51;;;;;;;6.80;0.40;;;;;;;1.83;52.75;102391.88;4981297;28;20559;-64
2023/01/03 01:47:21;;;;;;;2.30;0.43;;;;;;;1.93;52.63;102397.25;4976549;28;20038;-63
2023/01/03 01:49:51;;;;;;;3.80;0.20;;;;;;;1.98;52.15;102389.63;4961319;28;20058;-61
2023/01/03 01:52:19;;;;;;;3.05;0.20;;;;;;;2.03;51.80;102400.03;4961421;28;20149;-62
2023/01/03 01:54:49;;;;;;;1.23;0.30;;;;;;;2.05;51.87;102399.22;4957733;28;20018;-62
2023/01/03 01:57:16;;;;;;;3.35;0.45;;;;;;;1.88;52.24;102408.31;4961294;28;20042;-61
2023/01/03 01:59:42;;;;;;;1.10;0.28;;;;;;;1.31;53.69;102404.47;4959616;28;20437;-62
2023/01/03 02:02:09;;;;;;;2.15;0.30;;;;;;;1.96;51.88;102400.75;4961189;28;20030;-63
2023/01/03 02:04:36;;;;;;;1.50;0.10;;;;;;;1.93;51.89;102412.72;4958723;28;20045;-63
2023/01/03 02:07:02;;;;;;;3.33;0.15;;;;;;;2.03;51.38;102412.91;4960044;28;20046;-63
2023/01/03 02:09:31;;;;;;;8.40;0.85;;;;;;;1.57;52.65;102412.78;4960841;28;20117;-63
2023/01/03 02:15:29;;;;;;;6.88;0.30;;;;;;;1.62;52.36;102413.78;4961405;28;20046;-63
2023/01/03 02:18:06;;;;;;;2.92;0.30;;;;;;;1.60;52.33;102417.19;4967462;28;20046;-62
2023/01/03 02:20:53;;;;;;;1.55;0.47;;;;;;;1.43;52.83;102417.63;4980991;28;20275;-63
2023/01/03 02:23:56;;;;;;;3.45;0.30;;;;;;;1.62;52.08;102420.66;4984498;28;20054;-63
2023/01/03 02:26:47;;;;;;;6.97;0.38;;;;;;;1.60;52.18;102419.75;4980514;28;20038;-63
2023/01/03 02:29:38;;;;;;;6.10;0.43;;;;;;;1.58;51.74;102418.84;4984503;28;20113;-62
2023/01/03 02:32:12;;;;;;;1.88;0.20;;;;;;;1.09;53.11;102419.41;4982873;28;20578;-63
2023/01/03 02:34:43;;;;;;;2.10;0.25;;;;;;;1.46;51.71;102422.88;4976656;28;20038;-62
2023/01/03 02:37:39;;;;;;;4.78;0.55;;;;;;;1.24;52.62;102428.34;4981145;28;20049;-63
2023/01/03 02:40:21;;;;;;;3.22;0.20;;;;;;;1.27;52.21;102433.56;4994887;28;20034;-64
2023/01/03 02:43:13;;;;;;;;;;;;;;;1.17;52.16;102435.06;4980616;28;20089;-63
2023/01/03 02:45:45;;;;;;;0.82;0.20;;;;;;;1.15;52.38;102434.16;4982048;28;19918;-63
2023/01/03 02:48:26;;;;;;;1.63;0.28;;;;;;;1.08;52.59;102433.13;4980687;28;20405;-62
2023/01/03 02:50:56;;;;;;;4.18;0.47;;;;;;;0.92;53.72;102430.97;4979017;28;20038;-62
2023/01/03 02:53:31;;;;;;;5.10;0.30;;;;;;;0.94;53.89;102429.31;4977228;28;20039;-61
2023/01/03 02:56:03;;;;;;;2.03;0.63;;;;;;;0.82;54.32;102442.75;4980647;28;20507;-63
2023/01/03 02:58:33;;;;;;;3.13;1.05;;;;;;;0.81;54.74;102447.84;4993362;28;20358;-63
2023/01/03 03:01:01;;;;;;;6.30;0.82;;;;;;;0.88;54.61;102442.03;4968572;28;20149;-63
2023/01/03 03:03:32;;;;;;;2.92;0.60;;;;;;;0.72;55.18;102438.19;4979974;28;20037;-62
2023/01/03 03:06:16;;;;;;;6.35;1.30;;;;;;;0.71;55.30;102440.75;4976256;28;20056;-63
2023/01/03 03:08:45;;;;;;;1.65;0.60;;;;;;;0.77;54.54;102433.16;4980834;28;20455;-62
2023/01/03 03:14:27;;;;;;;4.00;1.35;;;;;;;0.77;55.08;102431.47;4977387;28;20511;-63
2023/01/03 03:16:59;;;;;;;1.50;0.68;;;;;;;0.75;54.98;102427.09;4992576;28;20099;-62
2023/01/03 03:25:08;;;;;;;4.53;1.35;;;;;;;0.71;54.77;102430.44;4987776;28;20042;-63
2023/01/03 03:30:26;;;;;;;3.60;0.82;;;;;;;0.59;54.59;102452.47;4979648;28;20092;-62
2023/01/03 03:32:55;;;;;;;4.90;0.70;;;;;;;0.60;54.72;102443.91;4978146;28;20128;-62
2023/01/03 03:35:24;;;;;;;2.60;0.60;;;;;;;0.49;55.16;102445.31;4984741;28;20026;-63
2023/01/03 03:37:54;;;;;;;7.93;1.10;;;;;;;0.58;54.62;102445.56;4977489;28;20064;-63
2023/01/03 03:46:26;;;;;;;1.13;0.50;;;;;;;0.51;54.33;102450.50;4979306;28;20052;-69
2023/01/03 03:51:58;;;;;;;1.58;0.50;;;;;;;0.57;53.83;102466.09;4981369;28;20589;-69
2023/01/03 03:54:26;;;;;;;4.43;0.63;;;;;;;0.55;53.70;102460.91;4978643;28;20128;-69
2023/01/03 03:57:00;;;;;;;4.47;1.30;;;;;;;0.23;54.31;102454.88;4979577;28;20272;-69
2023/01/03 03:59:30;;;;;;;2.50;0.60;;;;;;;0.25;54.17;102455.78;4968080;28;20049;-69
2023/01/03 04:01:58;;;;;;;4.43;0.38;;;;;;;0.31;54.23;102467.97;4979120;28;20939;-69
2023/01/03 04:04:34;;;;;;;3.67;0.30;;;;;;;0.56;52.80;102462.66;4976660;28;20093;-68
2023/01/03 04:07:01;;;;;;;2.70;0.30;;;;;;;0.26;53.79;102467.84;4993881;28;20119;-70
2023/01/03 04:09:27;;;;;;;2.33;0.30;;;;;;;0.40;53.27;102470.78;4977817;28;20451;-71
2023/01/03 04:11:52;;;;;;;2.42;0.45;;;;;;;0.47;52.73;102470.13;4978962;28;22088;-71
2023/01/03 04:14:18;;;;;;;3.22;0.30;;;;;;;0.35;53.16;102467.22;4966150;28;20080;-70
2023/01/03 04:16:44;;;;;;;7.03;0.50;;;;;;;0.24;53.83;102466.91;4990512;28;20116;-66
2023/01/03 04:19:09;;;;;;;4.13;0.40;;;;;;;0.22;54.26;102469.44;4978565;28;20052;-66
2023/01/03 04:21:35;;;;;;;2.10;0.30;;;;;;;0.26;54.20;102473.84;4991809;28;20017;-66
2023/01/03 04:24:03;;;;;;;3.60;0.60;;;;;;;0.30;54.08;102473.91;4991112;28;20257;-66
2023/01/03 04:26:28;;;;;;;3.60;0.68;;;;;;;0.23;54.24;102472.88;4977887;28;20048;-66
2023/01/03 04:28:53;;;;;;;1.55;0.30;;;;;;;0.33;54.13;102474.03;4974395;28;20046;-65
2023/01/03 04:31:19;;;;;;;5.80;0.90;;;;;;;0.17;54.30;102473.56;4978662;28;20435;-64
2023/01/03 04:33:44;;;;;;;2.58;0.43;;;;;;;0.44;53.47;102477.75;4975453;28;20072;-64
2023/01/03 04:36:10;;;;;;;1.45;0.20;;;;;;;0.42;53.58;102475.13;4992464;28;20044;-64
2023/01/03 04:38:35;;;;;;;1.75;0.38;;;;;;;0.28;53.80;102472.19;4981503;28;20072;-64
2023/01/03 04:41:05;;;;;;;3.47;0.50;;;;;;;0.15;54.30;102464.94;4981115;28;20793;-64
2023/01/03 04:46:15;;;;;;;4.28;0.80;;;;;;;0.20;54.16;102476.22;4982578;28;20042;-66
2023/01/03 04:48:41;;;;;;;2.08;0.40;;;;;;;0.25;53.97;102479.78;4980376;28;20065;-63
2023/01/03 04:51:06;;;;;;;1.88;0.60;;;;;;;0.23;53.97;102478.00;4985091;28;20058;-63
2023/01/03 04:53:31;;;;;;;3.45;0.32;;;;;;;0.18;54.17;102483.03;4979814;28;20793;-65
2023/01/03 04:55:57;;;;;;;2.97;0.60;;;;;;;0.02;54.41;102483.41;4981275;28;20057;-67
2023/01/03 04:58:23;;;;;;;5.05;0.90;;;;;;;0.06;54.33;102491.25;4983602;28;20058;-64
2023/01/03 05:00:49;;;;;;;6.88;0.52;;;;;;;0.13;54.01;102497.44;4985497;28;20490;-64
2023/01/03 05:03:14;;;;;;;5.63;0.95;;;;;;;0.03;54.59;102491.19;4981039;28;20123;-64
2023/01/03 05:05:40;;;;;;;3.70;0.63;;;;;;;0.19;54.53;102491.59;4979398;28;20176;-66
2023/01/03 05:08:07;;;;;;;4.68;0.28;;;;;;;0.15;54.54;102495.81;4981475;28;20463;-67
2023/01/03 05:10:33;;;;;;;2.60;0.63;;;;;;;0.22;54.10;102487.44;4970521;28;20034;-68
2023/01/03 05:12:59;;;;;;;14.77;0.88;;;;;;;0.06;54.75;102496.41;4980961;28;20072;-68
2023/01/03 05:15:26;;;;;;;2.08;0.40;;;;;;;0.20;54.24;102493.38;4995132;28;20038;-68
2023/01/03 05:17:52;;;;;;;3.95;0.63;;;;;;;0.12;54.73;102499.97;4986012;28;20451;-68
2023/01/03 05:25:50;;;;;;;2.60;0.43;;;;;;;0.17;53.64;102503.56;4959198;28;20031;-68
2023/01/03 05:28:19;;;;;;;5.63;0.82;;;;;;;0.19;53.78;102502.78;4963380;28;20046;-68
2023/01/03 05:30:44;;;;;;;2.90;0.60;;;;;;;0.12;53.74;102511.13;4958644;28;20274;-64
2023/01/03 05:33:10;;;;;;;1.40;0.40;;;;;;;0.05;54.08;102504.97;4960523;28;20043;-64
2023/01/03 05:35:35;;;;;;;2.90;0.43;;;;;;;0.09;54.05;102511.03;4960930;28;20034;-64
2023/01/03 05:38:01;;;;;;;3.17;0.82;;;;;;;0.00;54.55;102506.50;4965481;28;20054;-64
2023/01/03 05:40:26;;;;;;;2.03;0.93;;;;;;;-0.17;55.17;102510.25;4960331;28;20046;-65
2023/01/03 05:42:52;;;;;;;6.85;0.80;;;;;;;-0.14;55.74;102516.34;4959275;28;20038;-64
2023/01/03 05:45:18;;;;;;;1.50;0.40;;;;;;;0.22;54.54;102518.28;4961073;28;20030;-68
2023/01/03 05:47:43;;;;;;;2.90;1.10;;;;;;;0.19;54.26;102518.22;4961359;28;20050;-67
2023/01/03 05:50:09;;;;;;;6.63;1.13;;;;;;;0.27;54.61;102526.13;4962278;28;20043;-66
2023/01/03 05:52:34;;;;;;;8.18;0.80;;;;;;;0.18;54.70;102519.03;4959860;28;20050;-66
2023/01/03 05:55:00;;;;;;;3.63;0.88;;;;;;;-0.01;55.85;102527.91;4965183;28;20069;-67
2023/01/03 05:57:25;;;;;;;3.80;1.55;;;;;;;0.34;55.25;102533.19;4961268;28;20061;-65
2023/01/03 05:59:51;;;;;;;9.02;1.75;;;;;;;0.36;55.22;102528.13;4959815;28;20432;-65
2023/01/03 06:02:16;;;;;;;2.70;1.08;;;;;;;0.43;55.14;102528.31;4960945;28;20794;-66
2023/01/03 06:04:42;;;;;;;6.57;1.90;;;;;;;0.57;55.17;102533.88;4957991;28;20042;-66
2023/01/03 06:07:07;;;;;;;8.43;1.75;;;;;;;0.57;54.90;102533.88;4961677;28;20467;-65
2023/01/03 06:09:32;;;;;;;3.95;1.58;;;;;;;0.63;54.84;102533.16;4970844;28;20035;-65
2023/01/03 06:11:58;;;;;;;5.32;1.30;;;;;;;0.46;55.50;102532.72;4960399;28;20636;-66
2023/01/03 06:14:23;;;;;;;4.03;1.77;;;;;;;0.52;55.18;102540.56;4971407;28;20247;-66
2023/01/03 06:19:33;;;;;;;7.90;2.30;;;;;;;0.16;56.12;102543.81;4977609;28;20338;-67
2023/01/03 06:21:58;;;;;;;5.63;2.75;;;;;;;-0.09;57.50;102546.47;4979718;28;20033;-67
2023/01/03 06:24:24;;;;;;;5.78;2.33;;;;;;;-0.27;58.21;102546.78;4979288;28;20138;-65
2023/01/03 06:26:49;;;;;;;4.30;2.00;;;;;;;-0.06;57.55;102549.13;4979466;28;20060;-64
2023/01/03 06:29:14;;;;;;;8.68;2.92;;;;;;;0.08;57.01;102550.44;4951826;28;20070;-65
2023/01/03 06:31:40;;;;;;;12.25;3.25;;;;;;;-0.26;57.94;102549.41;4966923;28;20038;-65
2023/01/03 06:34:06;;;;;;;7.57;2.78;;;;;;;-0.10;57.51;102543.03;4957525;28;20046;-66
2023/01/03 06:36:33;;;;;;;8.15;3.40;;;;;;;-0.23;57.94;102549.50;4957386;28;20661;-67
2023/01/03 06:38:59;;;;;;;8.05;3.40;;;;;;;-0.10;57.45;102544.72;4960921;28;20196;-66
2023/01/03 06:41:25;;;;;;;10.85;4.45;;;;;;;-0.16;57.49;102542.84;4971372;28;20064;-76
2023/01/03 06:43:52;;;;;;;18.40;4.22;;;;;;;-0.17;57.17;102559.97;4971777;28;20145;-78
2023/01/03 06:54:35;;;;;;;7.30;3.65;;;;;;;-0.29;58.40;102568.97;4978774;28;20042;-65
2023/01/03 06:57:02;;;;;;;11.77;4.28;;;;;;;0.00;57.23;102568.19;4978855;28;21491;-66
2023/01/03 06:59:28;;;;;;;10.20;3.90;;;;;;;0.10;57.05;102573.63;4979528;28;20512;-68
2023/01/03 07:01:54;;;;;;;9.00;3.80;;;;;;;0.01;57.57;102569.06;4976504;28;20032;-70
2023/01/03 07:04:21;;;;;;;10.68;4.75;;;;;;;0.09;57.42;102569.31;4979980;28;20050;-75
2023/01/03 07:06:47;;;;;;;13.07;4.10;;;;;;;0.33;57.09;102569.19;4977517;28;20050;-74
2023/01/03 07:09:13;;;;;;;8.82;4.30;;;;;;;0.22;57.13;102577.44;4978731;28;20735;-74
2023/01/03 07:11:39;;;;;;;8.27;4.28;;;;;;;0.40;56.91;102574.53;4980084;28;20274;-75
2023/01/03 07:14:07;;;;;;;11.23;4.57;;;;;;;0.20;57.41;102580.78;4991813;28;20038;-76
2023/01/03 07:16:37;;;;;;;9.35;4.07;;;;;;;0.42;56.83;102572.03;4977403;28;20034;-68
2023/01/03 07:19:05;;;;;;;9.43;5.05;;;;;;;0.45;56.75;102572.09;4976218;28;20295;-66
2023/01/03 07:21:33;;;;;;;11.55;4.25;;;;;;;0.64;56.47;102573.53;4980016;28;20090;-76
2023/01/03 07:24:00;;;;;;;10.30;4.13;;;;;;;0.48;56.76;102582.50;4977413;28;20045;-76
2023/01/03 07:26:26;;;;;;;10.63;4.32;;;;;;;0.53;56.48;102580.94;4980238;28;20046;-69
2023/01/03 07:28:53;;;;;;;12.20;4.55;;;;;;;0.57;56.21;102587.03;4980136;28;20523;-69
2023/01/03 07:31:19;;;;;;;12.20;3.40;;;;;;;0.60;56.59;102588.00;4978323;28;20038;-70
2023/01/03 07:33:45;;;;;;;16.67;3.97;;;;;;;0.55;56.72;102583.56;4963097;28;20127;-69
2023/01/03 07:36:12;;;;;;;9.25;3.35;;;;;;;0.73;56.20;102598.66;4980334;28;20037;-69
2023/01/03 07:38:40;;;;;;;15.73;5.18;;;;;;;0.62;56.31;102586.34;4977139;28;20541;-69
2023/01/03 07:41:09;;;;;;;10.50;4.63;;;;;;;0.72;55.82;102586.59;4977905;28;20130;-71
2023/01/03 07:43:37;;;;;;;10.25;3.58;;;;;;;0.76;55.67;102596.16;4977349;28;20559;-70
2023/01/03 07:46:22;;;;;;;7.55;4.22;;;;;;;0.65;56.05;102601.00;4980313;28;20065;-71
2023/01/03 07:48:50;;;;;;;13.85;4.97;;;;;;;0.81;55.99;102600.59;4976296;28;20085;-72
2023/01/03 07:51:19;;;;;;;8.15;4.57;;;;;;;0.72;55.75;102612.34;4979296;28;20045;-69
2023/01/03 07:53:45;;;;;;;11.70;4.47;;;;;;;0.78;55.84;102617.66;4975069;28;20431;-69
2023/01/03 07:56:18;;;;;;;11.70;3.92;;;;;;;0.82;55.68;102622.09;4979272;28;20297;-69
2023/01/03 07:58:44;;;;;;;9.30;4.50;;;;;;;0.65;56.12;102627.59;4979310;28;20049;-69
2023/01/03 08:01:16;;;;;;;11.65;4.93;;;;;;;0.86;55.54;102631.66;4989823;28;20129;-71
2023/01/03 08:03:42;;;;;;;15.80;5.57;;;;;;;0.87;56.20;102630.81;4977549;28;20046;-64
2023/01/03 08:06:09;;;;;;;6.03;3.75;;;;;;;1.00;55.52;102632.91;4985053;28;20471;-65
2023/01/03 08:08:35;;;;;;;8.85;4.75;;;;;;;1.09;55.53;102640.88;4980268;28;20050;-66
2023/01/03 08:13:45;;;;;;;7.65;4.38;;;;;;;1.26;55.57;102648.19;4974435;28;20043;-66
2023/01/03 08:16:14;;;;;;;12.00;4.53;;;;;;;1.15;55.26;102640.19;4980143;28;20068;-67
2023/01/03 08:18:40;;;;;;;13.80;5.10;;;;;;;1.07;55.61;102642.53;4979910;28;20042;-66
2023/01/03 08:21:08;;;;;;;14.68;6.07;;;;;;;1.12;55.26;102634.94;4969945;28;20109;-66
2023/01/03 08:23:33;;;;;;;12.43;5.72;;;;;;;0.73;56.36;102634.69;4976744;28;20046;-66
2023/01/03 08:26:11;;;;;;;15.43;5.80;;;;;;;1.04;55.57;102631.28;4982345;28;20030;-66
2023/01/03 08:28:37;;;;;;;13.85;5.70;;;;;;;1.08;55.88;102638.25;4978911;28;20460;-66
2023/01/03 08:31:08;;;;;;;13.15;5.10;;;;;;;1.14;55.44;102637.56;4980186;28;20088;-67
2023/01/03 08:33:45;;;;;;;17.10;4.78;;;;;;;0.76;56.01;102645.06;4977124;28;20053;-66
2023/01/03 08:36:12;;;;;;;14.48;5.20;;;;;;;0.94;55.70;102645.59;4980557;28;20052;-66
2023/01/03 08:38:43;;;;;;;14.90;5.63;;;;;;;1.30;55.31;102644.84;4978494;28;20587;-67
2023/01/03 08:41:10;;;;;;;8.52;4.10;;;;;;;1.27;55.02;102649.94;4989572;28;20076;-67
2023/01/03 08:43:39;;;;;;;16.10;5.32;;;;;;;1.39;54.65;102647.69;4983226;28;20042;-67
2023/01/03 08:46:07;;;;;;;9.20;4.97;;;;;;;1.42;54.45;102652.97;4989864;28;20404;-66
2023/01/03 08:48:33;;;;;;;14.68;6.18;;;;;;;1.45;54.86;102665.06;4981008;28;20056;-67
2023/01/03 08:51:00;;;;;;;13.68;6.00;;;;;;;1.66;53.89;102662.16;4987888;28;20025;-67
2023/01/03 08:53:27;;;;;;;12.93;5.50;;;;;;;1.72;54.39;102663.19;4983931;28;20450;-66
2023/01/03 08:55:53;;;;;;;9.07;4.88;;;;;;;1.73;53.97;102669.25;4991859;28;20123;-67
2023/01/03 08:58:19;;;;;;;11.40;5.20;;;;;;;1.87;53.62;102661.84;4972409;28;20562;-67
2023/01/03 09:00:45;;;;;;;17.13;6.03;;;;;;;1.94;53.50;102662.03;4963658;28;20493;-66
2023/01/03 09:03:11;;;;;;;15.88;5.93;;;;;;;2.00;53.45;102655.25;4958651;28;20093;-65
2023/01/03 09:05:36;;;;;;;15.85;6.07;;;;;;;2.50;53.98;102658.16;4958650;28;20595;-66
2023/01/03 09:08:02;;;;;;;11.93;6.03;;;;;;;3.02;51.64;102658.41;4962488;28;20476;-66
2023/01/03 09:10:27;;;;;;;10.35;5.68;;;;;;;3.36;51.40;102658.25;4960562;28;20231;-66
2023/01/03 09:12:53;;;;;;;14.05;5.30;;;;;;;3.43;50.40;102667.00;4957581;28;20055;-66
2023/01/03 09:15:19;;;;;;;10.35;5.57;;;;;;;3.32;50.66;102661.63;4958831;28;20041;-65
2023/01/03 09:17:46;;;;;;;17.35;6.70;;;;;;;2.94;50.63;102658.25;4959883;28;20350;-66
2023/01/03 09:20:12;;;;;;;13.43;6.30;;;;;;;2.62;51.23;102662.72;4958922;28;20069;-66
2023/01/03 09:22:38;;;;;;;10.10;4.85;;;;;;;2.70;51.54;102667.22;4972721;28;20081;-66
2023/01/03 09:25:04;;;;;;;11.65;5.32;;;;;;;3.23;51.33;102663.13;4960343;28;20534;-66
2023/01/03 09:27:30;;;;;;;13.07;6.28;;;;;;;3.35;50.58;102664.25;4967715;28;20065;-67
2023/01/03 09:29:55;;;;;;;12.10;5.82;;;;;;;2.93;50.82;102664.25;4979038;28;20081;-65
2023/01/03 09:32:21;;;;;;;12.00;5.78;;;;;;;3.06;50.78;102661.06;4980930;28;20904;-65
2023/01/03 09:34:46;;;;;;;8.52;5.05;;;;;;;3.56;49.40;102665.47;4981704;28;20030;-66
2023/01/03 09:37:12;;;;;;;10.43;6.00;;;;;;;3.86;50.10;102674.63;4982885;28;20468;-66
2023/01/03 09:39:39;;;;;;;10.50;4.85;;;;;;;3.80;49.31;102663.31;4979875;28;20426;-65
2023/01/03 09:44:52;;;;;;;14.38;5.57;;;;;;;4.42;47.07;102665.16;4982306;28;20076;-66
2023/01/03 09:47:23;;;;;;;7.18;4.38;;;;;;;4.46;47.38;102657.44;4983946;28;20308;-66
2023/01/03 09:49:50;;;;;;;10.23;4.93;;;;;;;5.03;47.31;102670.34;4990686;28;20053;-66
2023/01/03 10:04:14;;;;;;;15.35;5.95;;;;;;;5.19;46.13;102661.00;4981649;28;20218;-67
2023/01/03 10:07:11;;;;;;;11.45;5.70;;;;;;;5.75;45.22;102658.94;4981305;28;20447;-65
2023/01/03 10:10:12;;;;;;;12.57;6.53;;;;;;;5.83;44.33;102657.28;4986674;28;20042;-65
2023/01/03 10:12:59;;;;;;;13.35;6.68;;;;;;;5.94;43.78;102660.84;4967304;28;20053;-66
2023/01/03 10:15:42;;;;;;;13.88;5.78;;;;;;;5.78;44.55;102664.16;4964472;28;20440;-66
2023/01/03 10:18:29;;;;;;;12.25;6.43;;;;;;;5.75;44.72;102662.44;4962651;28;20042;-66
2023/01/03 10:21:31;;;;;;;15.43;6.57;;;;;;;5.56;44.22;102666.56;4974252;28;20030;-66
2023/01/03 10:23:57;;;;;;;11.65;6.40;;;;;;;5.65;44.05;102661.44;4958289;28;20054;-66
2023/01/03 10:26:29;;;;;;;14.48;5.68;;;;;;;5.75;44.14;102653.75;4957730;28;20217;-66
2023/01/03 10:28:54;;;;;;;14.40;6.53;;;;;;;5.17;45.70;102652.34;4961515;28;20038;-66
2023/01/03 10:32:19;;;;;;;15.73;6.63;;;;;;;4.29;47.43;102650.28;4963664;28;20034;-66
2023/01/03 10:35:07;;;;;;;12.27;6.70;;;;;;;5.18;46.33;102650.59;4966304;28;20730;-66
2023/01/03 10:37:32;;;;;;;13.20;7.30;;;;;;;5.30;45.27;102645.56;4984154;28;20125;-65
2023/01/03 10:40:02;;;;;;;12.05;6.80;;;;;;;5.42;45.54;102642.22;4947635;28;20106;-66
2023/01/03 10:42:31;;;;;;;11.70;6.30;;;;;;;5.59;45.43;102634.59;4970613;28;20034;-66
2023/01/03 10:45:09;;;;;;;12.57;7.57;;;;;;;5.65;45.08;102632.91;4970770;28;20057;-66
2023/01/03 10:47:34;;;;;;;14.38;6.03;;;;;;;5.72;44.85;102628.66;4972355;28;20035;-65
2023/01/03 10:50:01;;;;;;;10.25;6.30;;;;;;;5.63;44.24;102629.44;4974517;28;20096;-65
2023/01/03 10:52:39;;;;;;;14.18;6.05;;;;;;;5.32;45.46;102630.88;4961983;28;20572;-66
2023/01/03 10:55:15;;;;;;;15.60;6.95;;;;;;;5.25;45.20;102635.13;4958905;28;20109;-66
2023/01/03 10:58:14;;;;;;;15.60;7.20;;;;;;;5.25;46.12;102629.06;4960743;28;20518;-65
2023/01/03 11:00:41;;;;;;;11.93;6.55;;;;;;;5.16;46.14;102632.44;4960089;28;20069;-66
2023/01/03 11:03:18;;;;;;;16.00;7.10;;;;;;;5.34;46.51;102620.53;4958825;28;20420;-66
2023/01/03 11:06:07;;;;;;;15.35;7.72;;;;;;;5.30;45.72;102616.16;4960443;28;20026;-65
2023/01/03 11:08:38;;;;;;;12.10;5.82;;;;;;;4.96;46.17;102606.31;4960775;28;20062;-66
2023/01/03 11:11:04;;;;;;;13.98;6.55;;;;;;;5.01;46.36;102606.34;4961690;28;20825;-66
2023/01/03 11:13:40;;;;;;;13.50;7.07;;;;;;;4.96;46.13;102611.47;4960252;28;20042;-67
2023/01/03 11:16:15;;;;;;;12.52;7.22;;;;;;;5.02;45.88;102600.31;4976976;28;20027;-67
2023/01/03 11:18:42;;;;;;;14.95;6.95;;;;;;;5.13;44.86;102588.34;4947632;28;20357;-65
2023/01/03 11:21:49;;;;;;;13.95;5.60;;;;;;;5.18;45.65;102581.47;4976870;28;20524;-66
2023/01/03 11:24:42;;;;;;;13.40;7.03;;;;;;;5.22;46.62;102587.56;4958380;28;20468;-67
2023/01/03 11:27:19;;;;;;;17.25;8.40;;;;;;;3.88;48.72;102591.03;4965798;28;20081;-66
2023/01/03 11:30:07;;;;;;;14.75;7.57;;;;;;;4.79;46.76;102585.38;4959154;28;20386;-66
2023/01/03 11:32:38;;;;;;;20.65;8.57;;;;;;;4.70;46.45;102587.84;4975341;28;20085;-66
2023/01/03 11:35:32;;;;;;;16.70;7.55;;;;;;;4.47;46.61;102581.50;4962170;28;20113;-66
2023/01/03 11:38:16;;;;;;;14.75;6.15;;;;;;;4.04;46.33;102581.78;4963956;28;20132;-66
2023/01/03 11:40:47;;;;;;;9.80;6.28;;;;;;;2.49;49.59;102589.31;4979694;28;20070;-66
2023/01/03 11:43:19;;;;;;;12.68;5.65;;;;;;;2.19;51.37;102589.50;4962332;28;20210;-66
2023/01/03 11:46:22;;;;;;;11.97;6.13;;;;;;;2.30;51.52;102588.03;4961382;28;20627;-66
2023/01/03 11:49:13;;;;;;;11.68;6.05;;;;;;;2.00;51.53;102593.38;4962159;28;20333;-66
2023/01/03 11:52:08;;;;;;;13.93;5.32;;;;;;;1.99;52.62;102589.91;4958477;28;20042;-67
2023/01/03 11:55:10;;;;;;;14.95;6.70;;;;;;;2.14;52.70;102584.25;4960399;28;20483;-66
2023/01/03 11:57:36;;;;;;;;;;;;;;;1.97;52.73;102577.84;4959977;28;20566;-67
2023/01/03 12:00:24;;;;;;;11.43;6.28;;;;;;;2.27;51.58;102567.34;4961406;28;20165;-66
2023/01/03 12:03:08;;;;;;;14.77;6.95;;;;;;;1.92;52.20;102565.69;4961004;28;20046;-66
2023/01/03 12:05:41;;;;;;;14.23;6.35;;;;;;;1.56;53.29;102560.53;4957209;28;20027;-65
2023/01/03 12:08:31;;;;;;;19.83;7.82;;;;;;;0.99;55.93;102559.06;4961787;28;20057;-67
2023/01/03 12:11:12;;;;;;;16.42;6.65;;;;;;;1.52;54.79;102558.72;4976352;28;20764;-66
2023/01/03 12:13:44;;;;;;;15.43;7.70;;;;;;;1.22;55.45;102553.66;4974019;28;20042;-66
2023/01/03 12:16:22;;;;;;;15.95;6.18;;;;;;;1.81;54.22;102546.53;4956433;28;20050;-66
2023/01/03 12:19:06;;;;;;;24.58;8.57;;;;;;;1.47;54.85;102545.72;4972027;28;20038;-66
2023/01/03 12:21:37;;;;;;;20.40;8.57;;;;;;;2.27;52.85;102537.25;4962413;28;20467;-66
2023/01/03 12:24:05;;;;;;;19.93;7.27;;;;;;;1.88;54.38;102532.94;4954835;28;20038;-66
2023/01/03 12:26:33;;;;;;;22.52;8.20;;;;;;;2.37;53.56;102540.03;4955196;28;20389;-66
2023/01/03 12:29:18;;;;;;;26.48;10.18;;;;;;;2.38;52.75;102534.00;4958977;28;20038;-66
2023/01/03 12:31:50;;;;;;;18.42;8.43;;;;;;;2.15;53.58;102531.81;4961841;28;20179;-66
2023/01/03 12:34:31;;;;;;;23.10;10.07;;;;;;;2.75;52.74;102533.91;4986218;28;20091;-66
2023/01/03 12:37:08;;;;;;;16.52;7.47;;;;;;;2.00;54.06;102527.22;4972166;28;20144;-66
2023/01/03 12:39:56;;;;;;;28.00;9.43;;;;;;;2.62;52.35;102529.34;4976356;28;20113;-67
2023/01/03 12:42:34;;;;;;;26.52;10.32;;;;;;;2.55;52.92;102522.31;4972805;28;20533;-66
2023/01/03 12:45:18;;;;;;;24.65;10.43;;;;;;;2.74;52.70;102514.09;4975605;28;20279;-66
2023/01/03 12:47:59;;;;;;;26.92;10.10;;;;;;;2.81;52.76;102506.47;4987525;28;20057;-66
2023/01/03 12:50:31;;;;;;;22.10;9.75;;;;;;;2.97;52.75;102509.34;4986795;28;20462;-66
2023/01/03 12:53:19;;;;;;;28.40;10.82;;;;;;;2.98;52.46;102508.53;4972661;28;20038;-67